createdAt,value
2022-07-25T16:10:20.829Z,100471.53
2022-07-25T16:12:47.883Z,100479.75
2022-07-25T16:15:15.041Z,100470.94
2022-07-25T16:17:43.077Z,100469.47
2022-07-25T16:20:11.274Z,100459.53
2022-07-25T16:22:39.516Z,100461.22
2022-07-25T16:25:07.502Z,100464.63
2022-07-25T16:27:35.265Z,100453.81
2022-07-25T16:30:02.235Z,100450.81
2022-07-25T16:32:29.450Z,100447.41
2022-07-25T16:34:56.482Z,100466.44
2022-07-25T16:37:23.648Z,100446.88
2022-07-25T16:39:50.805Z,100451.06
2022-07-25T16:42:17.844Z,100441.03
2022-07-25T16:44:45.075Z,100453.78
2022-07-25T16:47:12.147Z,100466.84
2022-07-25T16:49:39.201Z,100426.81
2022-07-25T16:52:06.705Z,100439.09
2022-07-25T16:54:33.809Z,100437.94
2022-07-25T16:57:01.590Z,100435.81
2022-07-25T16:59:28.738Z,100385.19
2022-07-25T17:01:55.980Z,100442.59
2022-07-25T17:04:23.569Z,100405.00
2022-07-25T17:06:50.679Z,100433.34
2022-07-25T17:09:17.769Z,100426.13
2022-07-25T17:11:44.830Z,100418.28
2022-07-25T17:14:11.976Z,100422.97
2022-07-25T17:16:40.793Z,100416.25
2022-07-25T17:19:07.968Z,100401.06
2022-07-25T17:21:35.253Z,100414.09
2022-07-25T17:24:02.509Z,100403.13
2022-07-25T17:26:29.773Z,100404.81
2022-07-25T17:28:56.792Z,100402.53
2022-07-25T17:31:25.199Z,100401.50
2022-07-25T17:33:52.285Z,100408.44
2022-07-25T17:36:19.315Z,100395.78
2022-07-25T17:38:46.696Z,100407.84
2022-07-25T17:41:13.717Z,100403.28
2022-07-25T17:43:41.495Z,100400.56
2022-07-25T17:46:11.124Z,100394.19
2022-07-25T17:48:38.274Z,100388.06
2022-07-25T17:51:06.244Z,100399.44
2022-07-25T17:53:33.428Z,100383.81
2022-07-25T17:56:00.483Z,100388.91
2022-07-25T17:58:27.532Z,100392.63
2022-07-25T18:00:59.531Z,100383.97
2022-07-25T18:03:28.803Z,100379.72
2022-07-25T18:05:56.134Z,100370.91
2022-07-25T18:08:23.165Z,100377.63
2022-07-25T18:10:50.476Z,100377.63
2022-07-25T18:13:38.259Z,100376.25
2022-07-25T18:16:25.795Z,100372.84
2022-07-25T18:19:13.020Z,100372.13
2022-07-25T18:22:00.127Z,100368.59
2022-07-25T18:24:47.324Z,100367.03
2022-07-25T18:27:34.329Z,100373.47
2022-07-25T18:30:25.893Z,100351.72
2022-07-25T18:33:15.652Z,100337.91
2022-07-25T18:36:07.353Z,100364.81
2022-07-25T18:38:55.463Z,100328.38
2022-07-25T18:41:43.853Z,100355.28
2022-07-25T18:44:30.864Z,100351.16
2022-07-25T18:47:18.369Z,100362.84
2022-07-25T18:50:05.713Z,100343.50
2022-07-25T18:52:52.891Z,100349.94
2022-07-25T18:55:39.768Z,100346.81
2022-07-25T18:58:26.833Z,100347.38
2022-07-25T19:01:14.044Z,100324.75
2022-07-25T19:04:01.215Z,100337.03
2022-07-25T19:06:48.209Z,100308.03
2022-07-25T19:09:35.458Z,100345.44
2022-07-25T19:12:22.525Z,100342.91
2022-07-25T19:14:49.523Z,100318.09
2022-07-25T19:17:16.738Z,100332.25
2022-07-25T19:19:44.080Z,100301.88
2022-07-25T19:22:11.190Z,100320.41
2022-07-25T19:24:38.421Z,100322.28
2022-07-25T19:27:05.902Z,100320.28
2022-07-25T19:29:32.988Z,100312.16
2022-07-25T19:32:00.108Z,100308.78
2022-07-25T19:34:27.306Z,100298.28
2022-07-25T19:36:56.525Z,100293.88
2022-07-25T19:39:24.616Z,100300.84
2022-07-25T19:41:52.389Z,100290.19
2022-07-25T19:44:20.089Z,100268.63
2022-07-25T19:46:48.775Z,100292.56
2022-07-25T19:49:15.944Z,100283.75
2022-07-25T19:51:43.201Z,100284.78
2022-07-25T19:54:10.698Z,100261.50
2022-07-25T19:56:38.094Z,100271.59
2022-07-25T19:59:05.839Z,100269.31
2022-07-25T20:01:39.479Z,100277.66
2022-07-25T20:04:09.248Z,100284.06
2022-07-25T20:06:36.613Z,100267.00
2022-07-25T20:09:04.885Z,100268.03
2022-07-25T20:11:32.463Z,100267.16
2022-07-25T20:14:00.525Z,100270.72
2022-07-25T20:16:27.826Z,100264.59
2022-07-25T20:18:55.140Z,100265.47
2022-07-25T20:21:22.640Z,100263.78
2022-07-25T20:23:49.641Z,100261.19
2022-07-25T20:26:16.714Z,100260.38
2022-07-25T20:28:44.085Z,100259.66
2022-07-25T20:31:11.275Z,100255.28
2022-07-25T20:33:38.692Z,100251.16
2022-07-25T20:36:05.768Z,100252.03
2022-07-25T20:38:33.026Z,100240.00
2022-07-25T20:41:20.827Z,100237.28
2022-07-25T20:44:07.996Z,100229.50
2022-07-25T20:46:55.890Z,100226.97
2022-07-25T20:49:43.911Z,100233.88
2022-07-25T20:52:31.100Z,100222.53
2022-07-25T20:55:18.062Z,100222.84
2022-07-25T20:58:05.528Z,100222.38
2022-07-25T21:00:52.707Z,100213.22
2022-07-25T21:03:39.911Z,100218.31
2022-07-25T21:06:27.551Z,100208.38
2022-07-25T21:09:15.044Z,100199.72
2022-07-25T21:12:02.110Z,100196.16
2022-07-25T21:14:49.202Z,100203.13
2022-07-25T21:17:36.143Z,100198.03
2022-07-25T21:20:24.367Z,100191.06
2022-07-25T21:23:11.330Z,100195.47
2022-07-25T21:25:58.517Z,100196.16
2022-07-25T21:28:45.470Z,100192.94
2022-07-25T21:31:33.221Z,100171.41
2022-07-25T21:34:21.208Z,100195.31
2022-07-25T21:37:08.518Z,100187.69
2022-07-25T21:39:55.518Z,100183.81
2022-07-25T21:42:42.520Z,100189.22
2022-07-25T21:45:31.713Z,100189.22
2022-07-25T21:48:21.881Z,100178.88
2022-07-25T21:51:09.198Z,100175.16
2022-07-25T21:54:06.580Z,100171.63
2022-07-25T21:56:53.484Z,100167.94
2022-07-25T21:59:40.637Z,100155.03
2022-07-25T22:02:27.636Z,100154.75
2022-07-25T22:05:14.733Z,100148.47
2022-07-25T22:08:02.974Z,100120.03
2022-07-25T22:10:50.132Z,100146.47
2022-07-25T22:13:41.413Z,100144.09
2022-07-25T22:16:30.350Z,100157.44
2022-07-25T22:19:21.902Z,100128.13
2022-07-25T22:22:10.332Z,100142.53
2022-07-25T22:24:57.181Z,100120.31
2022-07-25T22:27:44.252Z,100137.97
2022-07-25T22:30:31.837Z,100140.53
2022-07-25T22:33:19.005Z,100135.13
2022-07-25T22:36:05.973Z,100124.50
2022-07-25T22:38:53.082Z,100121.94
2022-07-25T22:41:39.964Z,100111.31
2022-07-25T22:44:27.743Z,100098.44
2022-07-25T22:47:14.698Z,100105.91
2022-07-25T22:50:01.814Z,100094.03
2022-07-25T22:52:48.757Z,100074.75
2022-07-25T22:55:35.786Z,100090.72
2022-07-25T22:58:22.751Z,100095.81
2022-07-25T23:01:09.848Z,100093.13
2022-07-25T23:03:57.244Z,100025.63
2022-07-25T23:06:44.419Z,100085.00
2022-07-25T23:09:36.479Z,100089.41
2022-07-25T23:12:24.857Z,100086.00
2022-07-25T23:15:11.825Z,100081.91
2022-07-25T23:17:58.925Z,100048.81
2022-07-25T23:20:45.802Z,100082.78
2022-07-25T23:23:33.253Z,100069.59
2022-07-25T23:26:20.209Z,100075.16
2022-07-25T23:29:07.684Z,100078.97
2022-07-25T23:31:54.741Z,100075.47
2022-07-25T23:34:41.978Z,100062.28
2022-07-25T23:37:29.229Z,100044.72
2022-07-25T23:40:16.329Z,100086.41
2022-07-25T23:43:03.317Z,100073.91
2022-07-25T23:45:50.797Z,100067.25
2022-07-25T23:48:38.086Z,100071.78
2022-07-25T23:51:25.534Z,100059.31
2022-07-25T23:54:12.533Z,100060.16
2022-07-25T23:56:59.626Z,100058.28
2022-07-25T23:59:46.624Z,100056.44
